Time;durP1;ratioP1;P1;durP2;ratioP2;P2;SDS_P1;SDS_P2;PMS_P1;PMS_P2;Temp;Humidity;BMP_temperature;BMP_pressure;BME280_temperature;BME280_humidity;BME280_pressure;Samples;Min_cycle;Max_cycle;Signal;HPM_P1;HPM_P2
2021/09/10 00:00:05;;;;;;;37.35;32.05;;;19.00;99.90;;;;;;4197403;28;20029;-72
2021/09/10 00:02:06;;;;;;;37.33;32.85;;;18.90;99.90;;;;;;4198635;28;20063;-72
2021/09/10 00:04:06;;;;;;;41.13;34.58;;;18.80;99.90;;;;;;4196984;28;20045;-73
2021/09/10 00:06:07;;;;;;;42.85;34.13;;;18.90;99.90;;;;;;4197681;28;20609;-71
2021/09/10 00:08:08;;;;;;;43.03;36.55;;;19.00;99.90;;;;;;4196419;28;20036;-72
2021/09/10 00:10:09;;;;;;;39.78;33.25;;;19.00;99.90;;;;;;4197151;28;20047;-72
2021/09/10 00:12:10;;;;;;;40.05;34.00;;;19.00;99.90;;;;;;4196927;28;20028;-71
2021/09/10 00:14:10;;;;;;;41.17;35.55;;;19.10;99.90;;;;;;4197379;28;20506;-73
2021/09/10 00:16:11;;;;;;;43.00;33.30;;;19.20;99.90;;;;;;4196988;28;20037;-72
2021/09/10 00:18:12;;;;;;;43.40;34.15;;;19.20;99.90;;;;;;4196911;28;20036;-72
2021/09/10 00:20:12;;;;;;;44.15;35.35;;;19.20;99.90;;;;;;4197374;28;20045;-72
2021/09/10 00:22:13;;;;;;;46.63;36.00;;;19.20;99.90;;;;;;4187336;28;20051;-72
2021/09/10 00:24:14;;;;;;;49.85;37.80;;;19.20;99.90;;;;;;4197459;28;20048;-71
2021/09/10 00:26:14;;;;;;;42.10;36.47;;;19.20;99.90;;;;;;4197001;28;20110;-71
2021/09/10 00:28:15;;;;;;;45.97;38.30;;;19.20;99.90;;;;;;4197030;28;20120;-72
2021/09/10 00:30:15;;;;;;;46.38;37.75;;;19.20;99.90;;;;;;4195729;28;20389;-72
2021/09/10 00:32:16;;;;;;;44.60;38.17;;;19.10;99.90;;;;;;4196327;28;20482;-72
2021/09/10 00:34:17;;;;;;;49.53;38.47;;;19.10;99.90;;;;;;4197091;28;20153;-71
2021/09/10 00:36:17;;;;;;;40.38;34.38;;;19.00;99.90;;;;;;4195746;28;20032;-72
2021/09/10 00:38:18;;;;;;;49.17;40.55;;;19.00;99.90;;;;;;4191731;28;20029;-71
2021/09/10 00:40:18;;;;;;;53.70;42.42;;;19.00;99.90;;;;;;4195969;28;20119;-73
2021/09/10 00:42:19;;;;;;;47.47;39.55;;;18.90;99.90;;;;;;4196131;28;20037;-72
2021/09/10 00:44:20;;;;;;;58.25;41.70;;;18.90;99.90;;;;;;4196657;28;20472;-70
2021/09/10 00:46:21;;;;;;;55.78;43.20;;;18.90;99.90;;;;;;4196254;28;21820;-72
2021/09/10 00:48:22;;;;;;;58.65;43.60;;;18.90;99.90;;;;;;4195978;28;20462;-72
2021/09/10 00:50:23;;;;;;;55.17;43.33;;;18.90;99.90;;;;;;4197705;28;20039;-72
2021/09/10 00:52:24;;;;;;;57.53;46.08;;;18.90;99.90;;;;;;4193156;28;20105;-71
2021/09/10 00:54:25;;;;;;;57.97;45.47;;;18.90;99.90;;;;;;4197828;28;20040;-73
2021/09/10 00:56:27;;;;;;;56.35;43.47;;;18.90;99.90;;;;;;4197845;28;20025;-71
2021/09/10 00:58:27;;;;;;;60.45;43.42;;;18.90;99.90;;;;;;4196465;28;20472;-72
2021/09/10 01:00:28;;;;;;;57.47;45.47;;;18.70;99.90;;;;;;4197770;28;20090;-72
2021/09/10 01:02:28;;;;;;;65.28;47.83;;;18.80;99.90;;;;;;4196360;28;20033;-70
2021/09/10 01:04:29;;;;;;;66.40;49.78;;;18.80;99.90;;;;;;4197405;28;20032;-72
2021/09/10 01:06:30;;;;;;;67.03;48.50;;;18.70;99.90;;;;;;4196064;28;20395;-72
2021/09/10 01:08:32;;;;;;;70.85;48.22;;;18.70;99.90;;;;;;4195375;28;20031;-71
2021/09/10 01:10:33;;;;;;;66.53;45.67;;;18.60;99.90;;;;;;4196408;28;20388;-71
2021/09/10 01:12:36;;;;;;;68.40;48.78;;;18.60;99.90;;;;;;4197431;28;20537;-72
2021/09/10 01:14:37;;;;;;;65.93;45.30;;;18.60;99.90;;;;;;4195298;28;20032;-73
2021/09/10 01:16:38;;;;;;;69.32;47.28;;;18.50;99.90;;;;;;4195878;28;20432;-72
2021/09/10 01:18:38;;;;;;;69.97;49.50;;;18.50;99.90;;;;;;4196065;28;20476;-73
2021/09/10 01:20:39;;;;;;;68.75;48.97;;;18.40;99.90;;;;;;4197328;28;20112;-71
2021/09/10 01:22:40;;;;;;;65.10;45.95;;;18.40;99.90;;;;;;4195914;28;20514;-72
2021/09/10 01:25:06;;;;;;;70.88;49.00;;;18.40;99.90;;;;;;4196130;28;20123;-72
2021/09/10 01:27:07;;;;;;;78.70;49.67;;;18.40;99.90;;;;;;4192852;28;20476;-72
2021/09/10 01:29:08;;;;;;;67.53;48.30;;;18.40;99.90;;;;;;4194898;28;20106;-72
2021/09/10 01:31:08;;;;;;;72.45;50.65;;;18.40;99.90;;;;;;4195745;28;20033;-72
2021/09/10 01:33:10;;;;;;;76.78;50.10;;;18.40;99.90;;;;;;4187526;28;20025;-72
2021/09/10 01:35:11;;;;;;;75.53;50.08;;;18.40;99.90;;;;;;4195731;28;20464;-72
2021/09/10 01:37:12;;;;;;;75.63;48.88;;;18.40;99.90;;;;;;4195212;28;20051;-72
2021/09/10 01:39:12;;;;;;;81.22;49.40;;;18.40;99.90;;;;;;4191254;28;20518;-72
2021/09/10 01:41:13;;;;;;;78.90;51.47;;;18.40;99.90;;;;;;4194645;28;20037;-71
2021/09/10 01:43:15;;;;;;;74.90;49.53;;;18.40;99.90;;;;;;4195102;28;20064;-71
2021/09/10 01:45:16;;;;;;;69.95;46.05;;;18.40;99.90;;;;;;4193801;28;20028;-71
2021/09/10 01:47:17;;;;;;;79.65;50.50;;;18.40;99.90;;;;;;4195565;28;20025;-70
2021/09/10 01:49:18;;;;;;;83.97;52.30;;;18.30;99.90;;;;;;4196379;28;20047;-70
2021/09/10 01:51:31;;;;;;;83.10;53.33;;;18.30;99.90;;;;;;4197181;28;20029;-72
2021/09/10 01:53:32;;;;;;;82.07;47.25;;;18.30;99.90;;;;;;4195272;28;20040;-71
2021/09/10 01:55:32;;;;;;;85.70;52.13;;;18.30;99.90;;;;;;4195853;28;20040;-72
2021/09/10 01:57:34;;;;;;;84.88;52.72;;;18.30;99.90;;;;;;4196535;28;20399;-72
2021/09/10 01:59:34;;;;;;;89.65;54.05;;;18.30;99.90;;;;;;4196971;28;20032;-72
2021/09/10 02:01:35;;;;;;;92.47;53.88;;;18.40;99.90;;;;;;4196819;28;20036;-72
2021/09/10 02:03:36;;;;;;;85.38;52.15;;;18.40;99.90;;;;;;4195003;28;20039;-72
2021/09/10 02:05:36;;;;;;;89.30;52.83;;;18.40;99.90;;;;;;4196590;28;20523;-72
2021/09/10 02:07:37;;;;;;;87.28;54.17;;;18.40;99.90;;;;;;4193626;28;20033;-72
2021/09/10 02:09:38;;;;;;;93.28;53.60;;;18.40;99.90;;;;;;4195998;28;20115;-72
2021/09/10 02:11:39;;;;;;;86.20;53.53;;;18.40;99.90;;;;;;4196687;28;20043;-72
2021/09/10 02:13:40;;;;;;;91.28;51.80;;;18.40;99.90;;;;;;4195120;28;20538;-72
2021/09/10 02:15:40;;;;;;;88.55;52.53;;;18.40;99.90;;;;;;4196532;28;20044;-71
2021/09/10 02:17:42;;;;;;;88.05;53.75;;;18.40;99.90;;;;;;4196605;28;20131;-72
2021/09/10 02:19:43;;;;;;;85.20;51.38;;;18.40;99.90;;;;;;4196431;28;20036;-72
2021/09/10 02:21:43;;;;;;;89.43;52.50;;;18.30;99.90;;;;;;4196172;28;20048;-72
2021/09/10 02:23:44;;;;;;;77.95;50.08;;;18.30;99.90;;;;;;4194946;28;20117;-71
2021/09/10 02:25:45;;;;;;;78.15;51.08;;;18.30;99.90;;;;;;4195313;28;20473;-71
2021/09/10 02:27:45;;;;;;;76.55;49.08;;;18.20;99.90;;;;;;4195415;28;20027;-71
2021/09/10 02:29:46;;;;;;;81.82;50.00;;;18.10;99.90;;;;;;4195117;28;20135;-72
2021/09/10 02:31:46;;;;;;;83.43;51.00;;;18.00;99.90;;;;;;4194831;28;20400;-72
2021/09/10 02:33:47;;;;;;;89.53;53.17;;;18.00;99.90;;;;;;4196563;28;20041;-72
2021/09/10 02:35:48;;;;;;;84.20;53.10;;;17.90;99.90;;;;;;4190085;28;20393;-72
2021/09/10 02:37:48;;;;;;;87.47;51.22;;;17.90;99.90;;;;;;4194944;28;20035;-72
2021/09/10 02:39:49;;;;;;;89.00;53.15;;;17.80;99.90;;;;;;4196023;28;20028;-73
2021/09/10 02:41:50;;;;;;;81.97;50.53;;;17.80;99.90;;;;;;4195683;28;20427;-72
2021/09/10 02:43:50;;;;;;;82.95;50.10;;;17.70;99.90;;;;;;4195811;28;20041;-72
2021/09/10 02:45:51;;;;;;;82.63;47.42;;;17.70;99.90;;;;;;4194028;28;20047;-72
2021/09/10 02:47:51;;;;;;;85.75;51.53;;;17.60;99.90;;;;;;4194869;28;20025;-71
2021/09/10 02:49:53;;;;;;;87.80;48.78;;;17.60;99.90;;;;;;4195705;28;20109;-72
2021/09/10 02:51:54;;;;;;;82.50;47.55;;;17.60;99.90;;;;;;4196266;28;20028;-71
2021/09/10 02:53:55;;;;;;;85.97;51.03;;;17.60;99.90;;;;;;4193001;28;20035;-72
2021/09/10 02:55:56;;;;;;;86.55;48.03;;;17.70;99.90;;;;;;4195216;28;20025;-72
2021/09/10 02:57:57;;;;;;;78.07;45.38;;;17.70;99.90;;;;;;4195840;28;20051;-72
2021/09/10 02:59:58;;;;;;;79.57;49.50;;;17.70;99.90;;;;;;4195986;28;20036;-71
2021/09/10 03:01:58;;;;;;;79.60;47.47;;;17.80;99.90;;;;;;4196181;28;20404;-72
2021/09/10 03:03:59;;;;;;;84.18;48.38;;;17.80;99.90;;;;;;4196128;28;20358;-71
2021/09/10 03:05:59;;;;;;;82.55;47.53;;;17.80;99.90;;;;;;4195704;28;20432;-70
2021/09/10 03:08:00;;;;;;;88.80;49.85;;;17.80;99.90;;;;;;4191998;28;20033;-71
2021/09/10 03:10:02;;;;;;;84.95;47.53;;;17.80;99.90;;;;;;4194060;28;20035;-72
2021/09/10 03:12:03;;;;;;;85.88;48.10;;;17.80;99.90;;;;;;4187976;28;20036;-72
2021/09/10 03:14:04;;;;;;;78.10;45.53;;;17.80;99.90;;;;;;4192780;28;20557;-72
2021/09/10 03:16:04;;;;;;;82.80;47.72;;;17.80;99.90;;;;;;4195730;28;20024;-72
2021/09/10 03:18:05;;;;;;;90.50;48.97;;;17.70;99.90;;;;;;4194043;28;20458;-72
2021/09/10 03:20:06;;;;;;;84.97;48.35;;;17.70;99.90;;;;;;4195482;28;20116;-72
2021/09/10 03:22:07;;;;;;;76.07;45.20;;;17.70;99.90;;;;;;4194318;28;20036;-72
2021/09/10 03:24:08;;;;;;;89.03;46.92;;;17.60;99.90;;;;;;4205594;28;20043;-71
2021/09/10 03:26:08;;;;;;;79.05;47.00;;;17.60;99.90;;;;;;4195877;28;20029;-72
2021/09/10 03:28:09;;;;;;;86.43;48.33;;;17.60;99.90;;;;;;4187223;28;20024;-73
2021/09/10 03:30:11;;;;;;;83.63;46.78;;;17.60;99.90;;;;;;4194681;28;20037;-71
2021/09/10 03:32:11;;;;;;;89.20;48.72;;;17.50;99.90;;;;;;4196006;28;20033;-72
2021/09/10 03:34:12;;;;;;;89.55;48.22;;;17.50;99.90;;;;;;4195731;28;20028;-73
2021/09/10 03:36:12;;;;;;;84.88;46.28;;;17.50;99.90;;;;;;4194364;28;20381;-72
2021/09/10 03:38:13;;;;;;;89.00;50.22;;;17.50;99.90;;;;;;4194589;28;20406;-72
2021/09/10 03:40:14;;;;;;;98.18;50.55;;;17.40;99.90;;;;;;4191995;28;20036;-72
2021/09/10 03:42:15;;;;;;;99.28;52.17;;;17.40;99.90;;;;;;4191881;28;20064;-72
2021/09/10 03:44:16;;;;;;;90.35;49.83;;;17.40;99.90;;;;;;4193103;28;20132;-72
2021/09/10 03:46:16;;;;;;;88.80;48.55;;;17.40;99.90;;;;;;4194611;28;20491;-72
2021/09/10 03:48:17;;;;;;;91.18;48.38;;;17.30;99.90;;;;;;4195990;28;20040;-72
2021/09/10 03:50:18;;;;;;;80.60;47.28;;;17.30;99.90;;;;;;4195623;28;20115;-72
2021/09/10 03:52:18;;;;;;;82.30;46.97;;;17.30;99.90;;;;;;4195554;28;20029;-71
2021/09/10 03:54:19;;;;;;;79.70;45.72;;;17.30;99.90;;;;;;4193429;28;20078;-72
2021/09/10 03:56:19;;;;;;;93.72;48.80;;;17.30;99.90;;;;;;4194429;28;20396;-71
2021/09/10 03:58:20;;;;;;;95.03;48.83;;;17.40;99.90;;;;;;4193709;28;23949;-71
2021/09/10 04:00:21;;;;;;;89.82;48.25;;;17.50;99.90;;;;;;4195763;28;20040;-72
2021/09/10 04:02:21;;;;;;;89.63;48.33;;;17.50;99.90;;;;;;4195256;28;20067;-71
2021/09/10 04:04:22;;;;;;;83.63;45.55;;;17.60;99.90;;;;;;4191063;28;20036;-71
2021/09/10 04:06:22;;;;;;;80.50;46.53;;;17.60;99.90;;;;;;4190507;28;20422;-71
2021/09/10 04:08:23;;;;;;;76.13;43.45;;;17.80;99.90;;;;;;4194247;28;20430;-71
2021/09/10 04:10:24;;;;;;;75.15;43.60;;;17.90;99.90;;;;;;4198043;28;20037;-71
2021/09/10 04:12:24;;;;;;;74.07;41.67;;;17.90;99.90;;;;;;4195896;28;20028;-73
2021/09/10 04:14:25;;;;;;;72.85;41.20;;;18.00;99.90;;;;;;4197690;28;20484;-71
2021/09/10 04:16:25;;;;;;;67.97;40.67;;;18.00;99.90;;;;;;4198531;28;20760;-72
2021/09/10 04:18:26;;;;;;;78.65;42.55;;;18.10;99.90;;;;;;4198433;28;20397;-71
2021/09/10 04:20:27;;;;;;;73.47;41.50;;;18.10;99.90;;;;;;4197236;28;20384;-72
2021/09/10 04:22:27;;;;;;;69.75;42.28;;;18.10;99.90;;;;;;4196904;28;20040;-72
2021/09/10 04:24:28;;;;;;;71.25;40.15;;;18.10;99.90;;;;;;4195473;28;20127;-72
2021/09/10 04:26:28;;;;;;;73.50;41.30;;;18.10;99.90;;;;;;4197012;28;20056;-72
2021/09/10 04:28:29;;;;;;;66.43;39.03;;;18.20;99.90;;;;;;4198289;28;20055;-72
2021/09/10 04:30:30;;;;;;;70.05;39.22;;;18.20;99.90;;;;;;4195784;28;20051;-72
2021/09/10 04:32:31;;;;;;;64.28;38.20;;;18.20;99.90;;;;;;4197781;28;20032;-73
2021/09/10 04:34:31;;;;;;;62.63;38.22;;;18.20;99.90;;;;;;4198172;28;20087;-71
2021/09/10 04:36:32;;;;;;;64.07;38.75;;;18.20;99.90;;;;;;4198043;28;20534;-71
2021/09/10 04:38:32;;;;;;;65.05;39.80;;;18.10;99.90;;;;;;4196372;28;20435;-71
2021/09/10 04:40:33;;;;;;;70.80;40.25;;;18.10;99.90;;;;;;4198285;28;20033;-72
2021/09/10 04:42:34;;;;;;;61.78;39.03;;;18.10;99.90;;;;;;4197834;28;20147;-72
2021/09/10 04:44:35;;;;;;;65.50;39.35;;;18.10;99.90;;;;;;4197097;28;20044;-72
2021/09/10 04:46:35;;;;;;;61.42;37.63;;;18.10;99.90;;;;;;4197878;28;20395;-71
2021/09/10 04:48:36;;;;;;;58.90;37.42;;;18.10;99.90;;;;;;4197529;28;20037;-71
2021/09/10 04:50:38;;;;;;;59.70;37.03;;;18.10;99.90;;;;;;4196536;28;20033;-72
2021/09/10 04:52:39;;;;;;;70.35;38.63;;;18.10;99.90;;;;;;4196554;28;20044;-72
2021/09/10 04:54:40;;;;;;;60.00;37.55;;;18.10;99.90;;;;;;4195932;28;20033;-72
2021/09/10 04:56:41;;;;;;;60.33;36.08;;;18.10;99.90;;;;;;4197947;28;20067;-72
2021/09/10 04:58:41;;;;;;;59.53;37.10;;;18.10;99.90;;;;;;4196572;28;20086;-72
2021/09/10 05:00:42;;;;;;;60.83;36.13;;;18.10;99.90;;;;;;4195015;28;20040;-71
2021/09/10 05:02:42;;;;;;;56.95;36.35;;;18.10;99.90;;;;;;4196242;28;20500;-71
2021/09/10 05:04:43;;;;;;;54.15;33.88;;;18.20;99.90;;;;;;4196306;28;20044;-72
2021/09/10 05:06:44;;;;;;;59.60;34.92;;;18.20;99.90;;;;;;4197771;28;20086;-72
2021/09/10 05:08:44;;;;;;;52.05;35.63;;;18.20;99.90;;;;;;4196455;28;20357;-72
2021/09/10 05:10:45;;;;;;;51.35;34.83;;;18.20;99.90;;;;;;4197477;28;20040;-72
2021/09/10 05:12:46;;;;;;;51.00;34.35;;;18.20;99.90;;;;;;4197609;28;20051;-72
2021/09/10 05:14:51;;;;;;;53.00;34.10;;;18.20;99.90;;;;;;4197321;28;20107;-70
2021/09/10 05:16:52;;;;;;;48.00;34.60;;;18.20;99.90;;;;;;4196789;28;20063;-71
2021/09/10 05:18:52;;;;;;;56.00;31.50;;;18.20;99.90;;;;;;4197378;28;20476;-73
2021/09/10 05:20:53;;;;;;;46.42;33.10;;;18.30;99.90;;;;;;4197472;28;20039;-72
2021/09/10 05:22:54;;;;;;;46.42;31.27;;;18.30;99.90;;;;;;4197446;28;20060;-72
2021/09/10 05:24:55;;;;;;;45.75;31.80;;;18.30;99.90;;;;;;4193194;28;20036;-72
2021/09/10 05:26:55;;;;;;;45.08;33.35;;;18.30;99.90;;;;;;4196686;28;20119;-70
2021/09/10 05:28:56;;;;;;;45.45;30.92;;;18.40;99.90;;;;;;4196468;28;20029;-71
2021/09/10 05:30:57;;;;;;;49.78;33.20;;;18.40;99.90;;;;;;4194400;28;20475;-71
2021/09/10 05:32:58;;;;;;;40.25;28.88;;;18.40;99.90;;;;;;4194441;28;20029;-71
2021/09/10 05:34:58;;;;;;;46.20;31.25;;;18.40;99.90;;;;;;4196153;28;20056;-72
2021/09/10 05:36:59;;;;;;;44.08;30.13;;;18.40;99.90;;;;;;4187593;28;20566;-72
2021/09/10 05:38:59;;;;;;;44.58;29.95;;;18.40;99.90;;;;;;4189198;28;20404;-72
2021/09/10 05:41:00;;;;;;;43.38;30.10;;;18.50;99.90;;;;;;4181839;28;20368;-72
2021/09/10 05:43:01;;;;;;;43.70;31.77;;;18.50;99.90;;;;;;4194899;28;20484;-70
2021/09/10 05:45:01;;;;;;;47.40;29.50;;;18.50;99.90;;;;;;4183900;28;20043;-72
2021/09/10 05:47:02;;;;;;;41.28;30.33;;;18.50;99.90;;;;;;4179420;28;20583;-71
2021/09/10 05:49:03;;;;;;;38.45;30.52;;;18.50;99.90;;;;;;4183325;28;20025;-72
2021/09/10 05:51:04;;;;;;;42.75;30.00;;;18.40;99.90;;;;;;4183587;28;20055;-71
2021/09/10 05:53:06;;;;;;;41.35;28.98;;;18.40;99.90;;;;;;4183070;28;20373;-71
2021/09/10 05:55:07;;;;;;;42.53;30.90;;;18.40;99.90;;;;;;4186476;28;20033;-71
2021/09/10 05:57:08;;;;;;;41.33;29.40;;;18.50;99.90;;;;;;4185310;28;20283;-71
2021/09/10 05:59:09;;;;;;;46.58;30.35;;;18.50;99.90;;;;;;4194908;28;20510;-72
2021/09/10 06:01:09;;;;;;;43.40;30.73;;;18.50;99.90;;;;;;4180779;28;20044;-72
2021/09/10 06:03:10;;;;;;;39.53;31.98;;;18.50;99.90;;;;;;4186481;28;20461;-72
2021/09/10 06:05:11;;;;;;;37.38;28.05;;;18.50;99.90;;;;;;4181229;28;20504;-69
2021/09/10 06:07:11;;;;;;;43.70;28.40;;;18.60;99.90;;;;;;4194257;28;20190;-71
2021/09/10 06:09:12;;;;;;;40.95;29.33;;;18.60;99.90;;;;;;4194102;28;20599;-71
2021/09/10 06:11:12;;;;;;;40.28;28.60;;;18.60;99.90;;;;;;4194689;28;20056;-71
2021/09/10 06:13:13;;;;;;;39.92;28.52;;;18.70;99.90;;;;;;4194923;28;20075;-71
2021/09/10 06:15:14;;;;;;;38.20;28.05;;;18.70;99.90;;;;;;4188248;28;20131;-72
2021/09/10 06:17:15;;;;;;;36.13;26.60;;;18.70;99.90;;;;;;4193088;28;20040;-72
2021/09/10 06:19:16;;;;;;;33.42;26.13;;;18.70;99.90;;;;;;4195546;28;20040;-71
2021/09/10 06:21:16;;;;;;;35.17;26.02;;;18.80;99.90;;;;;;4188634;28;20475;-72
2021/09/10 06:23:17;;;;;;;31.23;26.67;;;18.80;99.90;;;;;;4182018;28;20115;-71
2021/09/10 06:25:18;;;;;;;37.38;28.05;;;18.90;99.90;;;;;;4186460;28;20362;-71
2021/09/10 06:27:18;;;;;;;36.33;27.50;;;18.90;99.90;;;;;;4182680;28;20037;-71
2021/09/10 06:29:18;;;;;;;32.08;25.58;;;18.90;99.90;;;;;;4186892;28;20434;-73
2021/09/10 06:31:19;;;;;;;34.22;26.85;;;18.90;99.90;;;;;;4192954;28;20025;-72
2021/09/10 06:33:20;;;;;;;33.72;26.27;;;18.90;99.90;;;;;;4189690;28;20035;-70
2021/09/10 06:35:22;;;;;;;32.40;25.67;;;18.90;99.90;;;;;;4195620;28;20023;-71
2021/09/10 06:37:23;;;;;;;31.83;26.35;;;18.90;99.90;;;;;;4189614;28;20147;-71
2021/09/10 06:39:24;;;;;;;31.77;25.67;;;18.90;99.90;;;;;;4195091;28;20557;-71
2021/09/10 06:41:25;;;;;;;38.35;27.40;;;18.90;99.90;;;;;;4196073;28;20040;-72
2021/09/10 06:43:25;;;;;;;28.20;25.27;;;18.90;99.90;;;;;;4191353;28;20107;-72
2021/09/10 06:45:26;;;;;;;30.73;25.00;;;19.00;99.90;;;;;;4191734;28;20035;-72
2021/09/10 06:47:26;;;;;;;31.67;23.90;;;19.00;99.90;;;;;;4194427;28;20021;-71
2021/09/10 06:49:27;;;;;;;30.77;26.02;;;19.00;99.90;;;;;;4195463;28;20025;-70
2021/09/10 06:51:28;;;;;;;31.05;25.38;;;19.00;99.90;;;;;;4187183;28;20037;-71
2021/09/10 06:53:29;;;;;;;29.67;25.00;;;19.10;99.90;;;;;;4195551;28;20029;-72
2021/09/10 06:55:30;;;;;;;35.97;24.23;;;19.10;99.90;;;;;;4190246;28;20037;-72
2021/09/10 06:57:31;;;;;;;29.00;24.30;;;19.20;99.90;;;;;;4194649;28;20044;-71
2021/09/10 06:59:31;;;;;;;29.02;24.45;;;19.10;99.90;;;;;;4187338;28;20428;-71
2021/09/10 07:01:32;;;;;;;28.30;23.73;;;19.20;99.90;;;;;;4190303;28;20121;-73
2021/09/10 07:03:32;;;;;;;26.98;22.40;;;19.30;99.90;;;;;;4190859;28;20441;-72
2021/09/10 07:05:33;;;;;;;27.25;22.17;;;19.30;99.90;;;;;;4193400;28;20029;-72
2021/09/10 07:07:33;;;;;;;24.10;20.20;;;19.30;99.90;;;;;;4191921;28;20029;-73
2021/09/10 07:09:34;;;;;;;24.20;19.88;;;19.40;99.90;;;;;;4183337;28;20036;-74
2021/09/10 07:11:35;;;;;;;23.33;20.23;;;19.40;99.90;;;;;;4192939;28;20035;-74
2021/09/10 07:13:36;;;;;;;23.20;20.00;;;19.50;99.90;;;;;;4194381;28;20025;-72
2021/09/10 07:15:36;;;;;;;22.38;19.98;;;19.60;99.90;;;;;;4194613;28;20029;-72
2021/09/10 07:17:37;;;;;;;24.65;20.15;;;19.70;99.90;;;;;;4194437;28;20693;-74
2021/09/10 07:19:38;;;;;;;24.13;19.65;;;19.70;99.90;;;;;;4195006;28;20029;-72
2021/09/10 07:21:38;;;;;;;21.85;18.60;;;19.70;99.90;;;;;;4194057;28;20039;-71
2021/09/10 07:23:39;;;;;;;23.33;20.70;;;19.80;99.90;;;;;;4189098;28;20043;-71
2021/09/10 07:25:40;;;;;;;22.30;17.85;;;19.90;99.90;;;;;;4193553;28;20062;-73
2021/09/10 07:27:41;;;;;;;22.13;19.02;;;20.00;99.90;;;;;;4195443;28;20036;-73
2021/09/10 07:29:41;;;;;;;26.13;19.63;;;20.10;99.90;;;;;;4195398;28;20037;-73
2021/09/10 07:31:42;;;;;;;19.52;17.50;;;20.20;99.90;;;;;;4195371;28;20024;-73
2021/09/10 07:33:43;;;;;;;21.58;19.30;;;20.30;99.90;;;;;;4195277;28;20051;-73
2021/09/10 07:35:43;;;;;;;21.92;18.88;;;20.30;99.90;;;;;;4195773;28;20112;-72
2021/09/10 07:37:45;;;;;;;20.70;18.25;;;20.50;99.90;;;;;;4193325;28;20063;-73
2021/09/10 07:39:45;;;;;;;21.05;18.77;;;20.60;99.90;;;;;;4193683;28;20029;-72
2021/09/10 07:41:47;;;;;;;22.98;18.08;;;20.60;99.90;;;;;;4188790;28;20054;-72
2021/09/10 07:43:47;;;;;;;23.75;18.23;;;20.70;99.90;;;;;;4180316;28;20045;-73
2021/09/10 07:45:48;;;;;;;22.52;17.27;;;20.70;99.90;;;;;;4196980;28;20407;-72
2021/09/10 07:47:48;;;;;;;22.25;18.42;;;20.70;99.90;;;;;;4197159;28;20086;-72
2021/09/10 07:49:49;;;;;;;19.98;17.88;;;20.70;99.90;;;;;;4198181;28;20031;-73
2021/09/10 07:51:50;;;;;;;21.02;18.83;;;20.80;99.90;;;;;;4196156;28;20040;-71
2021/09/10 07:53:51;;;;;;;21.63;17.38;;;20.90;99.90;;;;;;4196512;28;20106;-73
2021/09/10 07:55:52;;;;;;;22.05;17.65;;;20.90;99.90;;;;;;4196316;28;20036;-72
2021/09/10 07:57:52;;;;;;;19.42;17.40;;;21.00;99.90;;;;;;4191922;28;20071;-72
2021/09/10 07:59:55;;;;;;;25.15;16.73;;;21.10;99.90;;;;;;4198404;28;20029;-72
2021/09/10 08:01:56;;;;;;;18.10;16.25;;;21.20;99.90;;;;;;4194668;28;20052;-72
2021/09/10 08:03:57;;;;;;;19.90;16.42;;;21.20;99.90;;;;;;4194456;28;20040;-72
2021/09/10 08:05:57;;;;;;;17.42;15.73;;;21.30;99.90;;;;;;4190368;28;20075;-72
2021/09/10 08:07:58;;;;;;;19.63;16.83;;;21.30;99.90;;;;;;4192847;28;20036;-73
2021/09/10 08:09:59;;;;;;;20.08;16.45;;;21.30;99.90;;;;;;4189740;28;20099;-72
2021/09/10 08:12:00;;;;;;;17.92;15.25;;;21.30;99.90;;;;;;4195076;28;20033;-72
2021/09/10 08:14:03;;;;;;;21.88;17.30;;;21.30;99.90;;;;;;4196827;28;20650;-72
2021/09/10 08:16:04;;;;;;;21.60;16.77;;;21.30;99.90;;;;;;4195737;28;20483;-72
2021/09/10 08:18:05;;;;;;;18.52;16.63;;;21.30;99.90;;;;;;4194571;28;20029;-72
2021/09/10 08:20:07;;;;;;;19.33;17.38;;;21.20;99.90;;;;;;4192646;28;20533;-72
2021/09/10 08:22:07;;;;;;;18.40;16.60;;;21.20;99.90;;;;;;4195352;28;20033;-73
2021/09/10 08:24:09;;;;;;;21.48;16.88;;;21.20;99.90;;;;;;4195860;28;20036;-73
2021/09/10 08:26:10;;;;;;;20.25;18.08;;;21.30;99.90;;;;;;4196285;28;20033;-73
2021/09/10 08:28:10;;;;;;;19.90;16.67;;;21.30;99.90;;;;;;4196384;28;20039;-73
2021/09/10 08:30:11;;;;;;;18.45;16.52;;;21.40;99.90;;;;;;4196624;28;20060;-73
2021/09/10 08:32:12;;;;;;;19.02;17.08;;;21.50;99.90;;;;;;4196360;28;20033;-72
2021/09/10 08:34:13;;;;;;;19.60;16.80;;;21.70;99.90;;;;;;4191891;28;20139;-73
2021/09/10 08:36:14;;;;;;;17.77;15.88;;;21.80;99.90;;;;;;4196310;28;20033;-72
2021/09/10 08:38:15;;;;;;;17.33;15.60;;;21.90;99.90;;;;;;4195359;28;20055;-73
2021/09/10 08:40:18;;;;;;;24.00;16.45;;;22.10;99.90;;;;;;4191297;28;20526;-73
2021/09/10 08:42:18;;;;;;;19.63;17.60;;;22.10;99.90;;;;;;4194107;28;20040;-73
2021/09/10 08:44:19;;;;;;;18.17;16.30;;;22.30;99.90;;;;;;4189779;28;20037;-73
2021/09/10 08:46:20;;;;;;;18.02;15.63;;;22.30;99.90;;;;;;4196509;28;20025;-73
2021/09/10 08:48:21;;;;;;;18.30;16.40;;;22.50;99.90;;;;;;4193714;28;20507;-73
2021/09/10 08:50:23;;;;;;;20.20;17.77;;;22.50;99.90;;;;;;4186281;28;20040;-71
2021/09/10 08:52:24;;;;;;;22.00;17.10;;;22.60;99.90;;;;;;4185462;28;20029;-72
2021/09/10 08:54:24;;;;;;;18.95;17.05;;;22.60;99.90;;;;;;4190945;28;20086;-72
2021/09/10 08:56:25;;;;;;;19.40;17.38;;;22.60;99.90;;;;;;4193031;28;20696;-72
2021/09/10 08:58:25;;;;;;;20.17;18.08;;;22.80;99.90;;;;;;4192702;28;20047;-72
2021/09/10 09:00:34;;;;;;;19.02;17.13;;;22.80;99.90;;;;;;4191169;28;20171;-71
2021/09/10 09:02:34;;;;;;;20.38;17.25;;;22.90;99.90;;;;;;4191100;28;20511;-72
2021/09/10 09:04:38;;;;;;;18.58;16.67;;;23.00;99.90;;;;;;4192670;28;20040;-72
2021/09/10 09:06:39;;;;;;;18.20;16.40;;;23.00;99.90;;;;;;4197454;28;20039;-72
2021/09/10 09:08:44;;;;;;;17.63;14.88;;;23.20;99.90;;;;;;4197053;28;20032;-72
2021/09/10 09:10:59;;;;;;;18.85;17.08;;;23.40;99.90;;;;;;4191733;28;20024;-73
2021/09/10 09:13:12;;;;;;;20.13;16.25;;;23.40;99.90;;;;;;4194713;28;20036;-71
2021/09/10 09:15:12;;;;;;;20.25;16.80;;;23.40;99.90;;;;;;4195439;28;20545;-73
2021/09/10 09:17:27;;;;;;;18.40;16.60;;;23.50;99.90;;;;;;4196140;28;20040;-70
2021/09/10 09:19:28;;;;;;;17.85;16.15;;;23.60;99.90;;;;;;4194639;28;20029;-71
2021/09/10 09:21:37;;;;;;;18.38;16.42;;;23.80;99.90;;;;;;4195649;28;20410;-72
2021/09/10 09:23:37;;;;;;;18.67;15.45;;;23.90;99.90;;;;;;4192577;28;20032;-72
2021/09/10 09:25:40;;;;;;;16.15;14.65;;;24.00;99.90;;;;;;4192333;28;20175;-73
2021/09/10 09:27:41;;;;;;;17.35;15.38;;;24.00;99.90;;;;;;4188147;28;20055;-73
2021/09/10 09:29:50;;;;;;;16.85;15.10;;;24.20;99.90;;;;;;4193509;28;20477;-73
2021/09/10 09:32:09;;;;;;;15.60;13.98;;;24.40;99.90;;;;;;4191479;28;20425;-73
2021/09/10 09:34:10;;;;;;;15.55;14.05;;;24.60;99.90;;;;;;4195156;28;20670;-72
2021/09/10 09:36:12;;;;;;;15.40;12.65;;;24.70;99.90;;;;;;4191919;28;20511;-72
2021/09/10 09:38:21;;;;;;;14.88;13.43;;;24.50;99.90;;;;;;4195345;28;20404;-72
2021/09/10 09:40:33;;;;;;;16.75;14.95;;;24.50;99.90;;;;;;4191727;28;20044;-72
2021/09/10 09:42:35;;;;;;;15.32;13.13;;;24.50;99.90;;;;;;4194249;28;20039;-72
2021/09/10 09:44:36;;;;;;;15.50;12.43;;;24.60;99.90;;;;;;4193964;28;20037;-73
2021/09/10 09:46:37;;;;;;;15.15;13.48;;;24.60;99.90;;;;;;4195804;28;20028;-73
2021/09/10 09:48:40;;;;;;;15.15;13.65;;;24.70;99.90;;;;;;4195424;28;20046;-72
2021/09/10 09:50:42;;;;;;;19.80;14.00;;;24.60;99.90;;;;;;4195508;28;20035;-72
2021/09/10 09:52:51;;;;;;;13.73;12.15;;;24.50;99.90;;;;;;4196833;28;20051;-71
2021/09/10 09:54:52;;;;;;;14.90;13.48;;;24.70;99.90;;;;;;4190604;28;20107;-72
2021/09/10 09:56:53;;;;;;;12.70;11.18;;;24.80;99.90;;;;;;4195443;28;20043;-73
2021/09/10 09:58:55;;;;;;;12.20;10.65;;;25.00;99.90;;;;;;4196105;28;20036;-73
2021/09/10 10:00:56;;;;;;;14.63;10.82;;;25.20;99.90;;;;;;4196313;28;20087;-73
2021/09/10 10:02:59;;;;;;;13.32;12.02;;;25.20;99.90;;;;;;4196525;28;20365;-73
2021/09/10 10:05:00;;;;;;;11.73;10.52;;;25.10;99.90;;;;;;4194527;28;20040;-73
2021/09/10 10:07:03;;;;;;;17.63;12.20;;;25.10;99.90;;;;;;4196376;28;20035;-72
2021/09/10 10:09:08;;;;;;;12.20;10.90;;;25.00;99.90;;;;;;4196396;28;20123;-73
2021/09/10 10:11:21;;;;;;;14.40;13.00;;;25.30;99.90;;;;;;4193712;28;20098;-73
2021/09/10 10:13:30;;;;;;;13.63;12.23;;;25.40;99.90;;;;;;4196366;28;20050;-73
2021/09/10 10:15:31;;;;;;;15.52;14.02;;;25.40;99.90;;;;;;4196211;28;20765;-73